createdAt,value
2024-02-14T00:04:57.044Z,1230
2024-02-14T00:10:15.367Z,1229
2024-02-14T00:15:33.498Z,1240
2024-02-14T00:20:51.651Z,1296
2024-02-14T00:26:10.241Z,1307
2024-02-14T00:31:28.385Z,1322
2024-02-14T00:36:46.762Z,1342
2024-02-14T00:42:04.736Z,1363
2024-02-14T00:47:23.286Z,1399
2024-02-14T00:52:41.947Z,1426
2024-02-14T00:58:00.301Z,1437
2024-02-14T01:03:18.252Z,1440
2024-02-14T01:08:36.641Z,1454
2024-02-14T01:13:55.104Z,1464
2024-02-14T01:19:13.474Z,1470
2024-02-14T01:24:32.351Z,1471
2024-02-14T01:29:50.593Z,1495
2024-02-14T01:35:08.873Z,1500
2024-02-14T01:40:26.994Z,1503
2024-02-14T01:45:48.112Z,1510
2024-02-14T01:51:06.677Z,1505
2024-02-14T01:56:25.154Z,1491
2024-02-14T02:01:43.525Z,1481
2024-02-14T02:07:01.865Z,1485
2024-02-14T02:12:20.311Z,1478
2024-02-14T02:17:38.677Z,1479
2024-02-14T02:22:56.793Z,1491
2024-02-14T02:28:14.854Z,1509
2024-02-14T02:33:33.056Z,1530
2024-02-14T02:38:51.757Z,1507
2024-02-14T02:44:10.345Z,1501
2024-02-14T02:49:28.717Z,1555
2024-02-14T02:54:47.361Z,1564
2024-02-14T03:00:05.354Z,1558
2024-02-14T03:05:23.886Z,1513
2024-02-14T03:10:42.098Z,1494
2024-02-14T03:16:00.588Z,1488
2024-02-14T03:21:19.013Z,1478
2024-02-14T03:26:37.558Z,1487
2024-02-14T03:31:55.682Z,1487
2024-02-14T03:37:13.838Z,1494
2024-02-14T03:42:32.367Z,1500
2024-02-14T03:47:50.758Z,1499
2024-02-14T03:53:09.314Z,1514
2024-02-14T03:58:27.484Z,1512
2024-02-14T04:03:45.861Z,1521
2024-02-14T04:09:04.188Z,1520
2024-02-14T04:14:22.593Z,1512
2024-02-14T04:19:40.796Z,1531
2024-02-14T04:24:59.386Z,1550
2024-02-14T04:30:17.400Z,1553
2024-02-14T04:35:35.629Z,1519
2024-02-14T04:40:53.795Z,1518
2024-02-14T04:46:11.739Z,1521
2024-02-14T04:51:29.884Z,1552
2024-02-14T04:56:50.381Z,1555
2024-02-14T05:02:19.331Z,1561
2024-02-14T05:07:37.855Z,1547
2024-02-14T05:12:40.584Z,1539
2024-02-14T05:17:59.061Z,1543
2024-02-14T05:23:17.474Z,1559
2024-02-14T05:28:35.988Z,1560
2024-02-14T05:33:54.261Z,1568
2024-02-14T05:39:13.164Z,1557
2024-02-14T05:44:31.498Z,1533
2024-02-14T05:49:49.888Z,1541
2024-02-14T05:55:08.630Z,1537
2024-02-14T06:00:28.937Z,1494
2024-02-14T06:05:47.915Z,1463
2024-02-14T06:11:06.450Z,1453
2024-02-14T06:16:24.602Z,1430
2024-02-14T06:21:42.788Z,1428
2024-02-14T06:27:01.391Z,1410
2024-02-14T06:32:04.588Z,1388
2024-02-14T06:37:23.137Z,1365
2024-02-14T06:42:41.284Z,1351
2024-02-14T06:47:59.709Z,1368
2024-02-14T06:53:18.446Z,1361
2024-02-14T06:58:36.781Z,1069
2024-02-14T07:03:55.095Z,980
2024-02-14T07:09:13.849Z,964
2024-02-14T07:14:32.283Z,968
2024-02-14T07:19:50.570Z,971
2024-02-14T07:25:09.459Z,970
2024-02-14T07:30:27.834Z,965
2024-02-14T07:35:46.469Z,966
2024-02-14T07:41:04.744Z,965
2024-02-14T07:46:22.713Z,961
2024-02-14T07:51:41.260Z,961
2024-02-14T07:56:59.880Z,956
2024-02-14T08:02:18.383Z,952
2024-02-14T08:07:36.702Z,940
2024-02-14T08:12:55.143Z,931
2024-02-14T08:18:13.205Z,921
2024-02-14T08:23:32.384Z,918
2024-02-14T08:28:50.615Z,912
2024-02-14T08:34:09.129Z,904
2024-02-14T08:39:27.832Z,900
2024-02-14T08:44:46.029Z,900
2024-02-14T08:50:04.809Z,896
2024-02-14T08:55:23.547Z,891
2024-02-14T09:00:41.742Z,885
2024-02-14T09:06:00.449Z,875
2024-02-14T09:11:18.837Z,870
2024-02-14T09:16:37.185Z,864
2024-02-14T09:21:55.737Z,855
2024-02-14T09:27:15.597Z,855
2024-02-14T09:32:34.455Z,839
2024-02-14T09:37:52.973Z,847
2024-02-14T09:43:11.302Z,844
2024-02-14T09:48:29.440Z,840
2024-02-14T09:53:48.335Z,841
2024-02-14T09:59:07.030Z,840
2024-02-14T10:04:28.982Z,849
2024-02-14T10:09:47.226Z,894
2024-02-14T10:15:07.937Z,904
2024-02-14T10:20:26.525Z,968
2024-02-14T10:25:44.841Z,1000
2024-02-14T10:31:02.826Z,1007
2024-02-14T10:36:21.261Z,995
2024-02-14T10:41:40.160Z,1000
2024-02-14T10:46:58.593Z,1008
2024-02-14T10:52:16.741Z,1011
2024-02-14T10:57:35.056Z,1007
2024-02-14T11:02:53.513Z,999
2024-02-14T11:08:12.275Z,986
2024-02-14T11:13:31.696Z,982
2024-02-14T11:18:50.382Z,976
2024-02-14T11:24:09.078Z,971
2024-02-14T11:29:27.960Z,961
2024-02-14T11:34:46.291Z,958
2024-02-14T11:40:04.456Z,951
2024-02-14T11:45:22.695Z,954
2024-02-14T11:50:40.981Z,949
2024-02-14T11:55:59.697Z,958
2024-02-14T12:01:18.157Z,950
2024-02-14T12:06:39.400Z,956
2024-02-14T12:11:58.432Z,950
2024-02-14T12:17:17.115Z,955
2024-02-14T12:22:35.455Z,961
2024-02-14T12:27:53.716Z,957
2024-02-14T12:33:12.589Z,955
2024-02-14T12:38:31.536Z,957
2024-02-14T12:43:50.046Z,954
2024-02-14T12:49:08.479Z,964
2024-02-14T12:54:27.177Z,971
2024-02-14T12:59:45.600Z,978
2024-02-14T13:05:04.070Z,991
2024-02-14T13:10:22.169Z,1055
2024-02-14T13:15:40.563Z,1071
2024-02-14T13:20:58.945Z,1030
2024-02-14T13:26:17.218Z,1020
2024-02-14T13:31:35.621Z,1020
2024-02-14T13:36:53.925Z,1027
2024-02-14T13:42:12.173Z,1045
2024-02-14T13:47:30.697Z,1055
2024-02-14T13:52:49.120Z,1075
2024-02-14T13:58:07.105Z,1123
2024-02-14T14:03:25.253Z,1156
2024-02-14T14:08:43.798Z,1151
2024-02-14T14:14:02.294Z,1137
2024-02-14T14:19:20.913Z,1134
2024-02-14T14:24:39.626Z,1175
2024-02-14T14:29:57.945Z,1188
2024-02-14T14:35:16.197Z,1170
2024-02-14T14:40:34.728Z,1159
2024-02-14T14:45:52.872Z,1149
2024-02-14T14:51:11.389Z,1138
2024-02-14T14:56:29.780Z,1133
2024-02-14T15:01:48.299Z,1124
2024-02-14T15:07:06.982Z,1112
2024-02-14T15:12:26.031Z,1104
2024-02-14T15:17:44.396Z,1096
2024-02-14T15:23:02.999Z,1088
2024-02-14T15:28:21.222Z,1082
2024-02-14T15:33:39.471Z,1081
2024-02-14T15:38:58.160Z,1076
2024-02-14T15:44:16.489Z,1074
2024-02-14T15:49:34.813Z,1073
2024-02-14T15:54:53.082Z,1071
2024-02-14T16:00:11.064Z,1064
2024-02-14T16:05:30.325Z,1061
2024-02-14T16:10:48.880Z,1061
2024-02-14T16:16:07.194Z,1052
2024-02-14T16:21:25.347Z,1046
2024-02-14T16:26:43.727Z,1044
2024-02-14T16:32:01.855Z,1038
2024-02-14T16:37:20.218Z,1039
2024-02-14T16:42:39.047Z,1036
2024-02-14T16:47:57.658Z,1030
2024-02-14T16:53:16.053Z,1029
2024-02-14T16:58:34.219Z,1022
2024-02-14T17:03:58.289Z,1019
2024-02-14T17:09:24.431Z,1011
2024-02-14T17:14:43.846Z,1015
2024-02-14T17:20:05.674Z,1027
2024-02-14T17:25:24.206Z,1030
2024-02-14T17:30:45.561Z,1024
2024-02-14T17:36:07.737Z,1023
2024-02-14T17:41:25.997Z,1012
2024-02-14T17:46:44.185Z,1008
2024-02-14T17:52:02.077Z,1005
2024-02-14T17:57:20.197Z,1006
2024-02-14T18:02:38.658Z,1009
2024-02-14T18:07:57.283Z,1009
2024-02-14T18:13:00.171Z,1012
2024-02-14T18:18:02.830Z,1014
2024-02-14T18:23:21.505Z,1017
2024-02-14T18:28:39.651Z,1014
2024-02-14T18:34:01.156Z,1013
2024-02-14T18:39:20.390Z,1018
2024-02-14T18:44:40.152Z,1022
2024-02-14T18:49:58.702Z,1023
2024-02-14T18:55:16.815Z,1031
2024-02-14T19:00:34.991Z,1037
2024-02-14T19:05:53.333Z,1041
2024-02-14T19:11:14.776Z,1043
2024-02-14T19:16:37.033Z,1054
2024-02-14T19:21:55.429Z,1060
2024-02-14T19:27:13.545Z,1064
2024-02-14T19:32:33.358Z,1070
2024-02-14T19:37:51.353Z,1076
2024-02-14T19:43:14.930Z,1080
2024-02-14T19:48:57.476Z,1089
2024-02-14T19:54:16.979Z,1091
2024-02-14T19:59:38.611Z,1115
2024-02-14T20:05:00.621Z,1138
2024-02-14T20:10:21.883Z,1163
2024-02-14T20:15:41.003Z,1164
2024-02-14T20:20:59.546Z,1139
2024-02-14T20:26:19.938Z,1146
2024-02-14T20:31:42.744Z,1152
2024-02-14T20:37:00.891Z,1156
2024-02-14T20:42:19.240Z,1162
2024-02-14T20:47:37.820Z,1238
2024-02-14T20:52:56.673Z,1253
2024-02-14T20:58:15.009Z,1250
2024-02-14T21:03:33.067Z,1240
2024-02-14T21:08:51.158Z,1233
2024-02-14T21:14:09.916Z,1273
2024-02-14T21:19:28.328Z,1310
2024-02-14T21:24:46.383Z,1332
2024-02-14T21:30:04.582Z,1361
2024-02-14T21:35:22.939Z,1376
2024-02-14T21:40:41.266Z,1385
2024-02-14T21:45:59.807Z,1404
2024-02-14T21:51:17.956Z,1400
2024-02-14T21:56:36.127Z,1420
2024-02-14T22:01:54.251Z,1434
2024-02-14T22:07:12.949Z,1431
2024-02-14T22:12:31.361Z,1438
2024-02-14T22:17:49.938Z,1454
2024-02-14T22:23:08.402Z,1461
2024-02-14T22:28:26.521Z,1460
2024-02-14T22:33:45.301Z,1461
2024-02-14T22:39:03.805Z,1479
2024-02-14T22:44:21.855Z,1485
2024-02-14T22:49:40.039Z,1491
2024-02-14T22:54:59.342Z,1491
2024-02-14T23:00:17.656Z,1489
2024-02-14T23:05:36.279Z,1495
2024-02-14T23:10:55.308Z,1493
2024-02-14T23:16:13.739Z,1497
2024-02-14T23:21:32.286Z,1491
2024-02-14T23:26:50.516Z,1483
2024-02-14T23:32:08.780Z,1478
2024-02-14T23:37:27.163Z,1473
2024-02-14T23:42:45.680Z,1469
2024-02-14T23:48:03.765Z,1462
2024-02-14T23:53:22.684Z,1457
2024-02-14T23:58:40.663Z,1453
